createdAt,value
2022-10-01T00:00:09.063Z,9.50
2022-10-01T00:02:59.572Z,9.45
2022-10-01T00:06:01.109Z,9.41
2022-10-01T00:08:31.268Z,9.36
2022-10-01T00:11:10.668Z,9.30
2022-10-01T00:14:02.076Z,9.26
2022-10-01T00:16:42.826Z,9.25
2022-10-01T00:19:15.779Z,9.19
2022-10-01T00:21:54.916Z,9.12
2022-10-01T00:24:29.771Z,9.05
2022-10-01T00:27:23.532Z,8.99
2022-10-01T00:30:04.802Z,8.94
2022-10-01T00:32:46.338Z,8.90
2022-10-01T00:36:05.765Z,8.87
2022-10-01T00:39:02.695Z,8.83
2022-10-01T00:41:44.542Z,8.80
2022-10-01T00:45:08.518Z,8.77
2022-10-01T00:47:52.043Z,8.74
2022-10-01T00:51:16.642Z,8.71
2022-10-01T00:54:24.031Z,8.71
2022-10-01T00:57:31.002Z,8.67
2022-10-01T01:00:15.196Z,8.64
2022-10-01T01:03:00.919Z,8.60
2022-10-01T01:05:47.832Z,8.59
2022-10-01T01:08:54.133Z,8.57
2022-10-01T01:12:01.510Z,8.55
2022-10-01T01:15:11.576Z,8.52
2022-10-01T01:18:26.725Z,8.52
2022-10-01T01:21:28.409Z,8.51
2022-10-01T01:24:29.010Z,8.49
2022-10-01T01:27:29.655Z,8.47
2022-10-01T01:30:10.597Z,8.45
2022-10-01T01:32:56.132Z,8.43
2022-10-01T01:35:56.357Z,8.41
2022-10-01T01:38:41.435Z,8.36
2022-10-01T01:41:15.692Z,8.34
2022-10-01T01:43:51.985Z,8.32
2022-10-01T01:46:31.207Z,8.32
2022-10-01T01:49:04.587Z,8.31
2022-10-01T01:51:52.049Z,8.32
2022-10-01T01:54:20.878Z,8.30
2022-10-01T01:56:58.592Z,8.27
2022-10-01T01:59:32.805Z,8.25
2022-10-01T02:02:08.832Z,8.21
2022-10-01T02:04:46.107Z,8.18
2022-10-01T02:08:08.230Z,8.14
2022-10-01T02:11:25.190Z,8.12
2022-10-01T02:14:39.136Z,8.14
2022-10-01T02:17:21.479Z,8.11
2022-10-01T02:20:04.787Z,8.07
2022-10-01T02:23:10.292Z,8.06
2022-10-01T02:26:01.328Z,8.01
2022-10-01T02:28:43.386Z,7.95
2022-10-01T02:31:15.011Z,7.90
2022-10-01T02:33:51.936Z,7.88
2022-10-01T02:36:27.539Z,7.87
2022-10-01T02:39:32.252Z,7.86
2022-10-01T02:42:29.439Z,7.87
2022-10-01T02:45:23.921Z,7.86
2022-10-01T02:48:13.435Z,7.82
2022-10-01T02:51:20.372Z,7.81
2022-10-01T02:54:32.526Z,7.79
2022-10-01T02:57:24.618Z,7.74
2022-10-01T03:00:03.524Z,7.72
2022-10-01T03:02:59.899Z,7.70
2022-10-01T03:05:34.369Z,7.69
2022-10-01T03:08:28.507Z,7.70
2022-10-01T03:11:30.229Z,7.69
2022-10-01T03:14:25.938Z,7.68
2022-10-01T03:17:14.540Z,7.67
2022-10-01T03:19:51.723Z,7.64
2022-10-01T03:22:48.265Z,7.61
2022-10-01T03:25:33.344Z,7.58
2022-10-01T03:28:36.388Z,7.57
2022-10-01T03:31:49.024Z,7.50
2022-10-01T03:34:30.554Z,7.47
2022-10-01T03:37:31.399Z,7.47
2022-10-01T03:40:50.052Z,7.45
2022-10-01T03:43:38.383Z,7.41
2022-10-01T03:46:26.308Z,7.39
2022-10-01T03:49:05.490Z,7.35
2022-10-01T03:52:02.827Z,7.33
2022-10-01T03:54:32.653Z,7.29
2022-10-01T03:57:23.095Z,7.26
2022-10-01T04:00:14.891Z,7.25
2022-10-01T04:03:13.149Z,7.26
2022-10-01T04:05:46.678Z,7.26
2022-10-01T04:08:24.208Z,7.27
2022-10-01T04:11:30.081Z,7.30
2022-10-01T04:14:29.919Z,7.28
2022-10-01T04:17:11.212Z,7.24
2022-10-01T04:20:05.797Z,7.22
2022-10-01T04:22:58.189Z,7.16
2022-10-01T04:25:46.951Z,7.11
2022-10-01T04:28:29.117Z,7.07
2022-10-01T04:31:26.735Z,7.05
2022-10-01T04:34:03.627Z,7.07
2022-10-01T04:37:26.081Z,7.06
2022-10-01T04:40:08.377Z,7.07
2022-10-01T04:42:58.972Z,7.07
2022-10-01T04:45:47.735Z,7.07
2022-10-01T04:48:48.456Z,7.04
2022-10-01T04:51:31.730Z,7.03
2022-10-01T04:54:09.137Z,7.02
2022-10-01T04:57:01.339Z,7.02
2022-10-01T04:59:48.029Z,7.02
2022-10-01T05:02:29.710Z,7.05
2022-10-01T05:05:20.252Z,7.06
2022-10-01T05:07:57.937Z,7.08
2022-10-01T05:10:29.874Z,7.09
2022-10-01T05:14:07.058Z,7.09
2022-10-01T05:16:35.955Z,7.11
2022-10-01T05:19:17.623Z,7.14
2022-10-01T05:21:46.232Z,7.16
2022-10-01T05:24:17.687Z,7.17
2022-10-01T05:26:46.123Z,7.21
2022-10-01T05:29:21.821Z,7.25
2022-10-01T05:31:57.769Z,7.31
2022-10-01T05:34:36.752Z,7.38
2022-10-01T05:37:21.973Z,7.44
2022-10-01T05:40:02.229Z,7.47
2022-10-01T05:43:02.718Z,7.53
2022-10-01T05:45:42.758Z,7.49
2022-10-01T05:48:17.985Z,7.60
2022-10-01T05:51:10.071Z,7.61
2022-10-01T05:53:41.489Z,7.65
2022-10-01T05:56:28.010Z,7.71
2022-10-01T05:59:03.365Z,7.78
2022-10-01T06:01:38.390Z,7.85
2022-10-01T06:04:24.534Z,7.91
2022-10-01T06:07:01.071Z,7.98
2022-10-01T06:09:34.803Z,8.02
2022-10-01T06:12:26.402Z,8.08
2022-10-01T06:15:21.505Z,8.15
2022-10-01T06:17:53.729Z,8.18
2022-10-01T06:20:24.648Z,8.18
2022-10-01T06:23:22.426Z,8.21
2022-10-01T06:25:57.845Z,8.26
2022-10-01T06:28:38.469Z,8.31
2022-10-01T06:31:09.677Z,8.38
2022-10-01T06:34:17.332Z,8.42
2022-10-01T06:36:46.503Z,8.46
2022-10-01T06:39:15.000Z,8.51
2022-10-01T06:41:52.684Z,8.56
2022-10-01T06:44:25.049Z,8.62
2022-10-01T06:46:56.635Z,8.71
2022-10-01T06:49:30.904Z,8.77
2022-10-01T06:52:17.486Z,8.84
2022-10-01T06:54:57.578Z,8.91
2022-10-01T06:57:34.149Z,8.99
2022-10-01T07:00:19.559Z,9.07
2022-10-01T07:03:11.545Z,9.15
2022-10-01T07:05:46.659Z,9.23
2022-10-01T07:08:18.625Z,9.29
2022-10-01T07:10:47.658Z,9.37
2022-10-01T07:13:20.521Z,9.44
2022-10-01T07:15:49.804Z,9.54
2022-10-01T07:18:23.129Z,9.61
2022-10-01T07:20:58.207Z,9.68
2022-10-01T07:23:29.664Z,9.77
2022-10-01T07:26:19.367Z,9.84
2022-10-01T07:29:14.349Z,9.93
2022-10-01T07:32:02.694Z,10.03
2022-10-01T07:34:43.693Z,10.13
2022-10-01T07:37:24.658Z,10.22
2022-10-01T07:39:56.374Z,10.29
2022-10-01T07:42:34.818Z,10.38
2022-10-01T07:45:09.573Z,10.42
2022-10-01T07:47:42.041Z,10.47
2022-10-01T07:50:12.748Z,10.54
2022-10-01T07:52:43.726Z,10.63
2022-10-01T07:55:15.510Z,10.70
2022-10-01T07:57:44.876Z,10.77
2022-10-01T08:00:19.736Z,10.88
2022-10-01T08:02:56.288Z,10.97
2022-10-01T08:05:31.298Z,11.04
2022-10-01T08:08:05.034Z,11.11
2022-10-01T08:10:43.022Z,11.22
2022-10-01T08:13:23.186Z,11.33
2022-10-01T08:16:10.732Z,11.44
2022-10-01T08:18:55.824Z,11.55
2022-10-01T08:21:36.722Z,11.67
2022-10-01T08:24:07.080Z,11.78
2022-10-01T08:26:52.585Z,11.89
2022-10-01T08:29:23.247Z,11.95
2022-10-01T08:31:59.314Z,12.02
2022-10-01T08:34:32.995Z,12.11
2022-10-01T08:37:04.327Z,12.22
2022-10-01T08:39:37.525Z,12.35
2022-10-01T08:42:35.759Z,12.50
2022-10-01T08:45:50.942Z,12.71
2022-10-01T08:48:35.459Z,12.93
2022-10-01T08:51:42.475Z,13.12
2022-10-01T08:54:33.548Z,13.29
2022-10-01T08:57:12.747Z,13.49
2022-10-01T08:59:47.272Z,13.67
2022-10-01T09:02:26.330Z,13.79
2022-10-01T09:05:02.485Z,13.93
2022-10-01T09:07:51.687Z,14.08
2022-10-01T09:10:53.501Z,14.26
2022-10-01T09:13:41.160Z,14.50
2022-10-01T09:16:18.254Z,14.72
2022-10-01T09:19:20.241Z,14.92
2022-10-01T09:21:54.957Z,15.12
2022-10-01T09:24:44.776Z,15.33
2022-10-01T09:27:25.075Z,15.58
2022-10-01T09:29:59.158Z,15.78
2022-10-01T09:32:43.183Z,15.98
2022-10-01T09:35:26.449Z,16.13
2022-10-01T09:38:15.912Z,16.24
2022-10-01T09:40:57.876Z,16.31
2022-10-01T09:43:33.365Z,16.34
2022-10-01T09:46:13.684Z,16.39
2022-10-01T09:48:59.386Z,16.43
2022-10-01T09:51:34.825Z,16.52
2022-10-01T09:54:33.507Z,16.61
2022-10-01T09:57:26.775Z,16.69
2022-10-01T10:00:05.139Z,16.79
2022-10-01T10:02:39.329Z,16.93
2022-10-01T10:05:17.729Z,17.08
2022-10-01T10:08:12.309Z,17.21
2022-10-01T10:10:49.107Z,17.36
2022-10-01T10:13:44.679Z,17.44
2022-10-01T10:16:28.994Z,17.57
2022-10-01T10:19:22.829Z,17.68
2022-10-01T10:21:53.533Z,17.77
2022-10-01T10:24:34.659Z,17.90
2022-10-01T10:27:07.331Z,18.03
2022-10-01T10:29:37.112Z,18.16
2022-10-01T10:32:27.059Z,18.31
2022-10-01T10:35:10.329Z,18.48
2022-10-01T10:37:47.735Z,18.62
2022-10-01T10:40:27.101Z,18.76
2022-10-01T10:42:59.462Z,18.86
2022-10-01T10:45:38.265Z,18.96
2022-10-01T10:48:17.814Z,19.06
2022-10-01T10:50:47.539Z,19.16
2022-10-01T10:53:22.668Z,19.26
2022-10-01T10:56:04.350Z,19.40
2022-10-01T10:58:45.303Z,19.54
2022-10-01T11:01:21.447Z,19.62
2022-10-01T11:03:56.251Z,19.62
2022-10-01T11:06:24.971Z,19.62
2022-10-01T11:09:08.691Z,19.59
2022-10-01T11:11:45.925Z,19.55
2022-10-01T11:14:48.511Z,19.48
2022-10-01T11:17:41.572Z,19.38
2022-10-01T11:20:34.185Z,19.25
2022-10-01T11:23:05.180Z,19.02
2022-10-01T11:25:44.425Z,18.74
2022-10-01T11:28:22.939Z,18.44
2022-10-01T11:30:59.025Z,18.28
2022-10-01T11:33:46.715Z,18.13
2022-10-01T11:36:54.700Z,18.00
2022-10-01T11:39:25.616Z,17.94
2022-10-01T11:42:05.712Z,17.96
2022-10-01T11:44:43.746Z,17.99
2022-10-01T11:47:37.162Z,18.02
2022-10-01T11:50:15.294Z,18.05
2022-10-01T11:53:11.974Z,18.04
2022-10-01T11:56:05.864Z,17.98
2022-10-01T11:58:54.764Z,17.98
2022-10-01T12:01:25.980Z,18.02
2022-10-01T12:03:54.233Z,18.04
2022-10-01T12:06:41.372Z,18.03
2022-10-01T12:09:18.079Z,17.98
2022-10-01T12:11:56.545Z,17.95
2022-10-01T12:14:32.881Z,17.92
2022-10-01T12:17:26.097Z,17.95
2022-10-01T12:19:57.352Z,17.96
2022-10-01T12:22:31.580Z,18.00
2022-10-01T12:25:00.582Z,17.99
2022-10-01T12:27:48.497Z,17.93
2022-10-01T12:30:21.794Z,17.90
2022-10-01T12:33:23.327Z,17.87
2022-10-01T12:36:01.452Z,17.84
2022-10-01T12:38:59.901Z,17.84
2022-10-01T12:41:31.115Z,17.84
2022-10-01T12:44:15.325Z,17.83
2022-10-01T12:47:14.323Z,17.85
2022-10-01T12:49:56.532Z,17.86
2022-10-01T12:52:52.536Z,17.88
2022-10-01T12:55:59.203Z,17.88
2022-10-01T12:58:46.246Z,17.85
2022-10-01T13:01:41.608Z,17.83
2022-10-01T13:04:35.980Z,17.80
2022-10-01T13:07:23.675Z,17.77
2022-10-01T13:10:18.867Z,17.74
2022-10-01T13:13:12.566Z,17.74
2022-10-01T13:15:47.766Z,17.77
2022-10-01T13:20:40.049Z,17.88
2022-10-01T13:23:59.208Z,17.96
2022-10-01T13:27:00.280Z,18.06
2022-10-01T13:29:48.701Z,18.04
2022-10-01T13:32:26.121Z,18.02
2022-10-01T13:34:55.079Z,18.01
2022-10-01T13:37:30.415Z,17.95
2022-10-01T13:39:59.903Z,17.89
2022-10-01T13:42:47.372Z,17.84
2022-10-01T13:45:41.351Z,17.79
2022-10-01T13:48:19.082Z,17.73
2022-10-01T13:51:03.683Z,17.66
2022-10-01T13:53:38.165Z,17.57
2022-10-01T13:56:12.979Z,17.51
2022-10-01T13:58:43.667Z,17.43
2022-10-01T14:01:23.617Z,17.37
2022-10-01T14:04:21.782Z,17.26
2022-10-01T14:06:57.615Z,17.10
2022-10-01T14:09:31.690Z,16.95
2022-10-01T14:12:46.578Z,16.82
2022-10-01T14:15:42.819Z,16.73
2022-10-01T14:18:21.670Z,16.64
2022-10-01T14:21:38.597Z,16.56
2022-10-01T14:24:28.262Z,16.43
2022-10-01T14:27:21.491Z,16.32
2022-10-01T14:30:30.839Z,16.20
2022-10-01T14:33:28.456Z,16.10
2022-10-01T14:36:24.929Z,15.98
2022-10-01T14:39:03.852Z,15.85
2022-10-01T14:41:35.363Z,15.76
2022-10-01T14:44:34.102Z,15.69
2022-10-01T14:47:23.343Z,15.60
2022-10-01T14:49:54.771Z,15.48
2022-10-01T14:52:34.434Z,15.34
2022-10-01T14:55:16.954Z,15.15
2022-10-01T14:57:52.493Z,14.90
2022-10-01T15:00:28.056Z,14.59
2022-10-01T15:03:10.876Z,14.28
2022-10-01T15:05:47.402Z,13.98
2022-10-01T15:08:42.202Z,13.74
2022-10-01T15:11:15.400Z,13.50
2022-10-01T15:13:49.341Z,13.31
2022-10-01T15:16:21.968Z,13.16
2022-10-01T15:19:34.083Z,13.03
2022-10-01T15:22:19.860Z,12.89
2022-10-01T15:24:53.372Z,12.77
2022-10-01T15:27:44.189Z,12.67
2022-10-01T15:30:28.083Z,12.56
2022-10-01T15:32:58.731Z,12.48
2022-10-01T15:35:30.554Z,12.42
2022-10-01T15:38:00.887Z,12.37
2022-10-01T15:40:35.356Z,12.32
2022-10-01T15:43:10.480Z,12.26
2022-10-01T15:45:40.720Z,12.17
2022-10-01T15:48:30.908Z,12.10
2022-10-01T15:51:07.023Z,12.04
2022-10-01T15:53:40.868Z,11.99
2022-10-01T15:56:14.451Z,11.89
2022-10-01T15:58:58.599Z,11.80
2022-10-01T16:01:45.620Z,11.71
2022-10-01T16:04:15.127Z,11.64
2022-10-01T16:06:49.973Z,11.57
2022-10-01T16:09:24.284Z,11.51
2022-10-01T16:11:57.566Z,11.41
2022-10-01T16:14:31.929Z,11.37
2022-10-01T16:17:24.163Z,11.32
2022-10-01T16:19:57.194Z,11.28
2022-10-01T16:22:39.924Z,11.24
2022-10-01T16:25:23.502Z,11.22
2022-10-01T16:28:21.299Z,11.20
2022-10-01T16:30:58.453Z,11.17
2022-10-01T16:33:27.469Z,11.15
2022-10-01T16:36:19.418Z,11.14
2022-10-01T16:38:58.671Z,11.12
2022-10-01T16:41:30.610Z,11.09
2022-10-01T16:44:03.226Z,11.06
2022-10-01T16:46:42.888Z,11.04
2022-10-01T16:49:15.783Z,11.00
2022-10-01T16:51:46.784Z,11.02
2022-10-01T16:54:38.106Z,11.01
2022-10-01T16:57:11.551Z,11.02
2022-10-01T17:00:22.639Z,11.03
2022-10-01T17:03:20.392Z,11.04
2022-10-01T17:05:52.769Z,11.05
2022-10-01T17:08:36.427Z,11.05
2022-10-01T17:11:28.836Z,11.05
2022-10-01T17:14:08.901Z,11.06
2022-10-01T17:16:43.246Z,11.08
2022-10-01T17:19:13.573Z,11.07
2022-10-01T17:21:42.036Z,11.11
2022-10-01T17:24:14.931Z,11.12
2022-10-01T17:26:47.170Z,11.12
2022-10-01T17:29:19.326Z,11.13
2022-10-01T17:31:56.453Z,11.11
2022-10-01T17:34:39.669Z,11.10
2022-10-01T17:37:09.364Z,11.12
2022-10-01T17:39:38.526Z,11.13
2022-10-01T17:42:13.204Z,11.12
2022-10-01T17:44:56.168Z,11.11
2022-10-01T17:47:27.823Z,11.11
2022-10-01T17:50:02.340Z,11.13
2022-10-01T17:52:32.317Z,11.14
2022-10-01T17:55:00.884Z,11.14
2022-10-01T17:57:32.787Z,11.13
2022-10-01T18:00:09.751Z,11.14
2022-10-01T18:02:50.546Z,11.17
2022-10-01T18:05:30.740Z,11.17
2022-10-01T18:08:03.372Z,11.16
2022-10-01T18:10:42.151Z,11.18
2022-10-01T18:13:30.491Z,11.19
2022-10-01T18:16:14.121Z,11.22
2022-10-01T18:21:55.497Z,11.24
2022-10-01T18:24:27.546Z,11.24
2022-10-01T18:26:59.255Z,11.24
2022-10-01T18:29:40.376Z,11.25
2022-10-01T18:32:19.561Z,11.23
2022-10-01T18:35:00.659Z,11.20
2022-10-01T18:37:49.949Z,11.18
2022-10-01T18:40:29.614Z,11.18
2022-10-01T18:43:13.624Z,11.15
2022-10-01T18:46:08.731Z,11.14
2022-10-01T18:48:55.128Z,11.13
2022-10-01T18:52:07.569Z,11.13
2022-10-01T18:55:17.716Z,11.14
2022-10-01T18:58:27.856Z,11.12
2022-10-01T19:01:40.054Z,11.09
2022-10-01T19:04:26.952Z,11.07
2022-10-01T19:07:16.719Z,11.08
2022-10-01T19:09:54.240Z,11.08
2022-10-01T19:12:42.462Z,11.07
2022-10-01T19:15:29.557Z,11.07
2022-10-01T19:18:07.144Z,11.07
2022-10-01T19:21:06.912Z,11.03
2022-10-01T19:23:48.657Z,11.07
2022-10-01T19:26:26.763Z,11.07
2022-10-01T19:29:39.674Z,11.07
2022-10-01T19:32:21.523Z,11.05
2022-10-01T19:34:57.543Z,11.05
2022-10-01T19:37:38.305Z,11.07
2022-10-01T19:40:22.796Z,11.09
2022-10-01T19:43:08.464Z,11.09
2022-10-01T19:45:47.839Z,11.12
2022-10-01T19:48:37.643Z,11.13
2022-10-01T19:51:15.381Z,11.13
2022-10-01T19:54:04.749Z,11.13
2022-10-01T19:56:40.021Z,11.14
2022-10-01T19:59:16.898Z,11.15
2022-10-01T20:02:04.213Z,11.14
2022-10-01T20:04:41.177Z,11.11
2022-10-01T20:07:23.568Z,11.12
2022-10-01T20:10:15.422Z,11.12
2022-10-01T20:13:10.219Z,11.13
2022-10-01T20:16:10.455Z,11.15
2022-10-01T20:18:48.069Z,11.16
2022-10-01T20:21:53.700Z,11.17
2022-10-01T20:24:49.524Z,11.17
2022-10-01T20:27:39.793Z,11.18
2022-10-01T20:30:30.842Z,11.19
2022-10-01T20:33:24.388Z,11.19
2022-10-01T20:36:42.327Z,11.18
2022-10-01T20:39:29.289Z,11.20
2022-10-01T20:42:11.339Z,11.19
2022-10-01T20:44:45.416Z,11.18
2022-10-01T20:47:40.466Z,11.20
2022-10-01T20:50:26.301Z,11.22
2022-10-01T20:53:04.530Z,11.22
2022-10-01T20:56:17.534Z,11.22
2022-10-01T20:59:19.900Z,11.19
2022-10-01T21:02:46.295Z,11.15
2022-10-01T21:05:32.664Z,11.09
2022-10-01T21:08:41.739Z,11.04
2022-10-01T21:11:22.227Z,10.99
2022-10-01T21:14:07.428Z,10.94
2022-10-01T21:16:50.867Z,10.89
2022-10-01T21:19:41.198Z,10.82
2022-10-01T21:22:48.511Z,10.77
2022-10-01T21:25:24.893Z,10.75
2022-10-01T21:28:06.864Z,10.74
2022-10-01T21:31:01.575Z,10.76
2022-10-01T21:34:03.006Z,10.80
2022-10-01T21:36:38.217Z,10.83
2022-10-01T21:39:17.315Z,10.89
2022-10-01T21:42:25.569Z,10.90
2022-10-01T21:45:23.360Z,10.93
2022-10-01T21:48:42.507Z,10.95
2022-10-01T21:51:17.772Z,10.99
2022-10-01T21:54:15.105Z,11.02
2022-10-01T21:57:28.535Z,11.05
2022-10-01T22:00:21.839Z,11.06
2022-10-01T22:03:02.369Z,11.09
2022-10-01T22:05:38.115Z,11.11
2022-10-01T22:08:37.199Z,11.14
2022-10-01T22:11:35.119Z,11.17
2022-10-01T22:14:12.953Z,11.19
2022-10-01T22:16:54.598Z,11.20
2022-10-01T22:19:34.623Z,11.20
2022-10-01T22:22:13.568Z,11.21
2022-10-01T22:24:49.175Z,11.22
2022-10-01T22:28:03.813Z,11.21
2022-10-01T22:30:36.827Z,11.21
2022-10-01T22:33:12.776Z,11.23
2022-10-01T22:35:56.038Z,11.25
2022-10-01T22:38:39.139Z,11.29
2022-10-01T22:41:33.410Z,11.30
2022-10-01T22:44:10.478Z,11.32
2022-10-01T22:46:48.279Z,11.33
2022-10-01T22:49:20.789Z,11.35
2022-10-01T22:51:49.824Z,11.36
2022-10-01T22:54:59.080Z,11.37
2022-10-01T22:58:09.566Z,11.40
2022-10-01T23:01:38.459Z,11.44
2022-10-01T23:04:47.632Z,11.48
2022-10-01T23:07:37.970Z,11.53
2022-10-01T23:10:15.575Z,11.58
2022-10-01T23:12:58.178Z,11.63
2022-10-01T23:16:04.362Z,11.68
2022-10-01T23:19:03.806Z,11.74
2022-10-01T23:22:11.125Z,11.77
2022-10-01T23:25:20.842Z,11.85
2022-10-01T23:28:17.549Z,11.91
2022-10-01T23:31:01.297Z,11.95
2022-10-01T23:34:07.093Z,11.98
2022-10-01T23:37:21.350Z,11.99
2022-10-01T23:40:07.582Z,12.00
2022-10-01T23:42:46.099Z,12.00
2022-10-01T23:45:25.590Z,11.96
2022-10-01T23:48:44.993Z,11.98
2022-10-01T23:51:28.177Z,11.98
2022-10-01T23:54:54.326Z,11.98
2022-10-01T23:57:47.297Z,11.98
